Avon, NC

7:18 AM EDT on September 20, 2014 (GMT -0400)
Avon, NC | Change Station
CLOSE
Current Station
Personal Weather Station
Location: Avon, NC
Elevation: 40 ft
Nearby Weather Stations
Active Advisory: Beach Hazard Statement

Elev 40 ft 35.37 °N, 75.50 °W | Updated 89 days ago

Rain
Rain
75 °F
Feels Like 75 °F
N
18
Wind Variable Wind from NE
Gusts 23 mph

Today
High -- | Low -- °F
--% Chance of Precip.
Yesterday
High -- | Low -- °F
Precip. -- in
6:48 AM 7:01 PM
Waning Crescent, 13% visible
Pressure 30.11 in
Visibility 10.0 miles
Clouds Few 2900 ft
Scattered Clouds 3800 ft
Mostly Cloudy 11000 ft
Dew Point 64 °F
Humidity 69%
Rainfall 0.10 in
Snow Depth Not available.
UV 0 out of 12
Pollen 5.70 out of 12
Air Quality Not available.
Flu Activity Not available.
METAR KHSE 201051Z AUTO 04009G18KT 10SM FEW029 SCT038 BKN110 21/21 A3011 RMK AO2 SLP196 T02110206 TSNO

More Conditions Fewer Conditions

Pressure 30.11 in
Visibility 10.0 miles
Clouds Few 2900 ft
Scattered Clouds 3800 ft
Mostly Cloudy 11000 ft
Dew Point 64 °F
Humidity 69%
Rainfall 0.10 in
Snow Depth Not available.
UV 0 out of 12
Pollen 5.70 out of 12
Air Quality Not available.
Flu Activity Not available.
METAR KHSE 201051Z AUTO 04009G18KT 10SM FEW029 SCT038 BKN110 21/21 A3011 RMK AO2 SLP196 T02110206 TSNO

More Conditions Fewer Conditions

10-Day Weather Forecast

Almanac

Astronomy

Sep. 20, 2014 Rise Set
Actual Time 6:48 AM EDT 7:01 PM EDT
Civil Twilight 6:23 AM EDT 7:27 PM EDT
Nautical Twilight 5:53 AM EDT 7:56 PM EDT
Astronomical Twilight 5:23 AM EDT 8:26 PM EDT
Moon 3:31 AM EDT 4:59 PM EDT
Length of Visible Light 13h 04m
Length of Day
12h 13m
Tomorrow will be 2m 12s shorter.
Waning Crescent, 13% of the Moon is Illuminated
Today
Waning Crescent
Sep 24
New
Oct 1
First Quarter
Oct 8
Full
Oct 15
Last Quarter

Today's Extremes

State Highs State Lows

Community

WunderPhotos

Upload Photos

1,754,829 photos uploaded!

WunderBlogs® & News

Nearby

Snow Depth

Station Depth Elevation
No new snow has been reported.

Earthquake Activity

City Distance Mag. Time & Date
No recent earthquake activity has been reported nearby.
Minimum magnitude displayed is 2.5.

Coastal Water Temperatures

Place Temperature
Oregon Inlet Marina, NC 73.0 °F
Hatteras, NC 73.0 °F
Duck Pier, NC 73.9 °F
Money Point, VA 78.1 °F
Beaufort, NC 75.0 °F
Sewells Point, VA 75.0 °F
Chesapeake Bay Bridge Tunnel, VA 75.0 °F

Nearby Weather Stations